sensor_id;sensor_type;location;lat;lon;timestamp;P1;durP1;ratioP1;P2;durP2;ratioP2
11090;SDS011;5599;52.210;21.046;2022-10-16T00:00:15;14.33;;;12.80;;
11090;SDS011;5599;52.210;21.046;2022-10-16T00:02:45;13.10;;;11.80;;
11090;SDS011;5599;52.210;21.046;2022-10-16T00:05:14;12.57;;;11.27;;
11090;SDS011;5599;52.210;21.046;2022-10-16T00:07:45;13.43;;;11.80;;
11090;SDS011;5599;52.210;21.046;2022-10-16T00:10:14;13.27;;;11.87;;
11090;SDS011;5599;52.210;21.046;2022-10-16T00:12:43;14.00;;;12.60;;
11090;SDS011;5599;52.210;21.046;2022-10-16T00:15:13;13.47;;;12.00;;
11090;SDS011;5599;52.210;21.046;2022-10-16T00:17:42;14.00;;;12.50;;
11090;SDS011;5599;52.210;21.046;2022-10-16T00:20:11;14.07;;;12.67;;
11090;SDS011;5599;52.210;21.046;2022-10-16T00:23:00;13.83;;;12.47;;
11090;SDS011;5599;52.210;21.046;2022-10-16T00:25:30;13.93;;;12.53;;
11090;SDS011;5599;52.210;21.046;2022-10-16T00:28:00;15.37;;;12.77;;
11090;SDS011;5599;52.210;21.046;2022-10-16T00:30:30;15.73;;;13.37;;
11090;SDS011;5599;52.210;21.046;2022-10-16T00:33:00;14.53;;;13.13;;
11090;SDS011;5599;52.210;21.046;2022-10-16T00:35:30;17.77;;;13.33;;
11090;SDS011;5599;52.210;21.046;2022-10-16T00:38:01;14.47;;;12.97;;
11090;SDS011;5599;52.210;21.046;2022-10-16T00:40:30;14.47;;;13.07;;
11090;SDS011;5599;52.210;21.046;2022-10-16T00:43:00;34.30;;;30.77;;
11090;SDS011;5599;52.210;21.046;2022-10-16T00:45:29;17.00;;;15.27;;
11090;SDS011;5599;52.210;21.046;2022-10-16T00:47:58;16.40;;;14.63;;
11090;SDS011;5599;52.210;21.046;2022-10-16T00:50:28;18.87;;;16.87;;
11090;SDS011;5599;52.210;21.046;2022-10-16T00:53:01;23.33;;;20.27;;
11090;SDS011;5599;52.210;21.046;2022-10-16T00:55:31;16.20;;;14.60;;
11090;SDS011;5599;52.210;21.046;2022-10-16T00:58:05;18.27;;;15.17;;
11090;SDS011;5599;52.210;21.046;2022-10-16T01:00:35;17.80;;;15.87;;
11090;SDS011;5599;52.210;21.046;2022-10-16T01:05:55;17.10;;;15.43;;
11090;SDS011;5599;52.210;21.046;2022-10-16T01:08:38;17.70;;;15.07;;
11090;SDS011;5599;52.210;21.046;2022-10-16T01:11:14;18.70;;;15.93;;
11090;SDS011;5599;52.210;21.046;2022-10-16T01:13:50;18.80;;;16.70;;
11090;SDS011;5599;52.210;21.046;2022-10-16T01:16:26;18.13;;;15.97;;
11090;SDS011;5599;52.210;21.046;2022-10-16T01:19:00;18.17;;;16.03;;
11090;SDS011;5599;52.210;21.046;2022-10-16T01:21:38;20.57;;;16.13;;
11090;SDS011;5599;52.210;21.046;2022-10-16T01:24:15;18.23;;;16.33;;
11090;SDS011;5599;52.210;21.046;2022-10-16T01:27:05;21.77;;;18.27;;
11090;SDS011;5599;52.210;21.046;2022-10-16T01:29:41;18.83;;;16.93;;
11090;SDS011;5599;52.210;21.046;2022-10-16T01:32:19;17.10;;;15.40;;
11090;SDS011;5599;52.210;21.046;2022-10-16T01:34:53;17.77;;;14.17;;
11090;SDS011;5599;52.210;21.046;2022-10-16T01:37:29;16.70;;;14.33;;
11090;SDS011;5599;52.210;21.046;2022-10-16T01:40:05;24.57;;;22.13;;
11090;SDS011;5599;52.210;21.046;2022-10-16T01:42:40;24.97;;;20.57;;
11090;SDS011;5599;52.210;21.046;2022-10-16T01:45:12;17.70;;;15.90;;
11090;SDS011;5599;52.210;21.046;2022-10-16T01:47:45;20.07;;;17.93;;
11090;SDS011;5599;52.210;21.046;2022-10-16T01:50:16;16.37;;;14.60;;
11090;SDS011;5599;52.210;21.046;2022-10-16T01:52:49;24.90;;;22.40;;
11090;SDS011;5599;52.210;21.046;2022-10-16T01:55:22;20.70;;;18.37;;
11090;SDS011;5599;52.210;21.046;2022-10-16T01:57:58;21.70;;;18.87;;
11090;SDS011;5599;52.210;21.046;2022-10-16T02:00:30;17.63;;;15.80;;
11090;SDS011;5599;52.210;21.046;2022-10-16T02:02:59;20.23;;;18.13;;
11090;SDS011;5599;52.210;21.046;2022-10-16T02:05:32;25.47;;;21.13;;
11090;SDS011;5599;52.210;21.046;2022-10-16T02:08:07;20.17;;;16.57;;
11090;SDS011;5599;52.210;21.046;2022-10-16T02:10:36;18.83;;;15.67;;
11090;SDS011;5599;52.210;21.046;2022-10-16T02:13:09;17.63;;;15.80;;
11090;SDS011;5599;52.210;21.046;2022-10-16T02:15:41;18.70;;;16.53;;
11090;SDS011;5599;52.210;21.046;2022-10-16T02:18:10;18.30;;;16.40;;
11090;SDS011;5599;52.210;21.046;2022-10-16T02:20:41;19.23;;;17.10;;
11090;SDS011;5599;52.210;21.046;2022-10-16T02:23:16;19.87;;;16.93;;
11090;SDS011;5599;52.210;21.046;2022-10-16T02:25:51;18.97;;;16.60;;
11090;SDS011;5599;52.210;21.046;2022-10-16T02:28:24;18.47;;;16.60;;
11090;SDS011;5599;52.210;21.046;2022-10-16T02:30:58;19.53;;;17.30;;
11090;SDS011;5599;52.210;21.046;2022-10-16T02:33:31;21.90;;;18.87;;
11090;SDS011;5599;52.210;21.046;2022-10-16T02:36:01;25.00;;;21.67;;
11090;SDS011;5599;52.210;21.046;2022-10-16T02:38:31;21.77;;;19.47;;
11090;SDS011;5599;52.210;21.046;2022-10-16T02:41:01;20.80;;;18.77;;
11090;SDS011;5599;52.210;21.046;2022-10-16T02:43:31;23.63;;;20.47;;
11090;SDS011;5599;52.210;21.046;2022-10-16T02:46:01;20.93;;;18.73;;
11090;SDS011;5599;52.210;21.046;2022-10-16T02:48:30;27.27;;;24.40;;
11090;SDS011;5599;52.210;21.046;2022-10-16T02:50:59;19.87;;;17.93;;
11090;SDS011;5599;52.210;21.046;2022-10-16T02:53:28;20.80;;;18.60;;
11090;SDS011;5599;52.210;21.046;2022-10-16T02:55:57;23.63;;;20.70;;
11090;SDS011;5599;52.210;21.046;2022-10-16T02:58:26;22.97;;;20.47;;
11090;SDS011;5599;52.210;21.046;2022-10-16T03:00:57;23.83;;;21.30;;
11090;SDS011;5599;52.210;21.046;2022-10-16T03:03:26;22.33;;;17.93;;
11090;SDS011;5599;52.210;21.046;2022-10-16T03:05:55;21.00;;;18.30;;
11090;SDS011;5599;52.210;21.046;2022-10-16T03:08:24;30.73;;;27.63;;
11090;SDS011;5599;52.210;21.046;2022-10-16T03:10:53;21.27;;;19.13;;
11090;SDS011;5599;52.210;21.046;2022-10-16T03:13:22;23.30;;;20.80;;
11090;SDS011;5599;52.210;21.046;2022-10-16T03:15:51;23.30;;;20.73;;
11090;SDS011;5599;52.210;21.046;2022-10-16T03:18:22;21.50;;;18.57;;
11090;SDS011;5599;52.210;21.046;2022-10-16T03:20:51;21.17;;;18.93;;
11090;SDS011;5599;52.210;21.046;2022-10-16T03:23:20;20.47;;;18.23;;
11090;SDS011;5599;52.210;21.046;2022-10-16T03:25:49;30.50;;;27.20;;
11090;SDS011;5599;52.210;21.046;2022-10-16T03:28:19;22.03;;;19.83;;
11090;SDS011;5599;52.210;21.046;2022-10-16T03:30:48;20.73;;;18.63;;
11090;SDS011;5599;52.210;21.046;2022-10-16T03:33:17;22.03;;;19.13;;
11090;SDS011;5599;52.210;21.046;2022-10-16T03:35:51;20.00;;;17.90;;
11090;SDS011;5599;52.210;21.046;2022-10-16T03:38:21;22.97;;;20.57;;
11090;SDS011;5599;52.210;21.046;2022-10-16T03:40:50;23.03;;;20.63;;
11090;SDS011;5599;52.210;21.046;2022-10-16T03:43:19;40.27;;;35.93;;
11090;SDS011;5599;52.210;21.046;2022-10-16T03:45:49;26.37;;;23.57;;
11090;SDS011;5599;52.210;21.046;2022-10-16T03:48:19;22.40;;;20.10;;
11090;SDS011;5599;52.210;21.046;2022-10-16T03:50:48;19.83;;;17.83;;
11090;SDS011;5599;52.210;21.046;2022-10-16T03:53:20;20.03;;;17.90;;
11090;SDS011;5599;52.210;21.046;2022-10-16T03:55:49;21.07;;;17.23;;
11090;SDS011;5599;52.210;21.046;2022-10-16T03:58:18;20.90;;;18.80;;
11090;SDS011;5599;52.210;21.046;2022-10-16T04:00:47;21.50;;;19.30;;
11090;SDS011;5599;52.210;21.046;2022-10-16T04:03:17;19.27;;;17.27;;
11090;SDS011;5599;52.210;21.046;2022-10-16T04:05:47;22.60;;;18.80;;
11090;SDS011;5599;52.210;21.046;2022-10-16T04:08:17;22.57;;;20.37;;
11090;SDS011;5599;52.210;21.046;2022-10-16T04:10:48;22.43;;;20.03;;
11090;SDS011;5599;52.210;21.046;2022-10-16T04:13:17;20.93;;;18.00;;
11090;SDS011;5599;52.210;21.046;2022-10-16T04:15:51;21.87;;;19.57;;
11090;SDS011;5599;52.210;21.046;2022-10-16T04:18:21;21.23;;;19.03;;
11090;SDS011;5599;52.210;21.046;2022-10-16T04:20:50;19.37;;;17.40;;
11090;SDS011;5599;52.210;21.046;2022-10-16T04:23:20;19.70;;;17.80;;
11090;SDS011;5599;52.210;21.046;2022-10-16T04:25:51;28.33;;;25.23;;
11090;SDS011;5599;52.210;21.046;2022-10-16T04:28:20;23.80;;;17.33;;
11090;SDS011;5599;52.210;21.046;2022-10-16T04:30:49;19.00;;;16.97;;
11090;SDS011;5599;52.210;21.046;2022-10-16T04:33:18;20.00;;;17.30;;
11090;SDS011;5599;52.210;21.046;2022-10-16T04:35:47;19.97;;;17.97;;
11090;SDS011;5599;52.210;21.046;2022-10-16T04:38:17;18.27;;;16.37;;
11090;SDS011;5599;52.210;21.046;2022-10-16T04:40:47;18.33;;;16.50;;
11090;SDS011;5599;52.210;21.046;2022-10-16T04:43:16;18.10;;;16.30;;
11090;SDS011;5599;52.210;21.046;2022-10-16T04:45:46;19.47;;;17.67;;
11090;SDS011;5599;52.210;21.046;2022-10-16T04:48:17;21.33;;;19.03;;
11090;SDS011;5599;52.210;21.046;2022-10-16T04:50:46;24.70;;;19.87;;
11090;SDS011;5599;52.210;21.046;2022-10-16T04:53:20;19.60;;;17.53;;
11090;SDS011;5599;52.210;21.046;2022-10-16T04:55:51;20.03;;;16.27;;
11090;SDS011;5599;52.210;21.046;2022-10-16T04:58:22;18.30;;;16.27;;
11090;SDS011;5599;52.210;21.046;2022-10-16T05:00:51;19.37;;;16.53;;
11090;SDS011;5599;52.210;21.046;2022-10-16T05:03:21;16.97;;;15.20;;
11090;SDS011;5599;52.210;21.046;2022-10-16T05:05:50;17.50;;;15.47;;
11090;SDS011;5599;52.210;21.046;2022-10-16T05:08:19;17.63;;;15.83;;
11090;SDS011;5599;52.210;21.046;2022-10-16T05:10:48;19.07;;;16.90;;
11090;SDS011;5599;52.210;21.046;2022-10-16T05:13:19;19.87;;;17.33;;
11090;SDS011;5599;52.210;21.046;2022-10-16T05:15:48;16.07;;;14.37;;
11090;SDS011;5599;52.210;21.046;2022-10-16T05:18:18;17.33;;;15.73;;
11090;SDS011;5599;52.210;21.046;2022-10-16T05:20:47;15.97;;;14.47;;
11090;SDS011;5599;52.210;21.046;2022-10-16T05:23:17;20.20;;;17.23;;
11090;SDS011;5599;52.210;21.046;2022-10-16T05:25:51;19.93;;;15.17;;
11090;SDS011;5599;52.210;21.046;2022-10-16T05:28:23;15.87;;;14.27;;
11090;SDS011;5599;52.210;21.046;2022-10-16T05:30:53;20.07;;;14.43;;
11090;SDS011;5599;52.210;21.046;2022-10-16T05:33:22;16.27;;;14.70;;
11090;SDS011;5599;52.210;21.046;2022-10-16T05:35:52;15.80;;;14.07;;
11090;SDS011;5599;52.210;21.046;2022-10-16T05:38:21;17.13;;;13.87;;
11090;SDS011;5599;52.210;21.046;2022-10-16T05:40:51;15.23;;;13.63;;
11090;SDS011;5599;52.210;21.046;2022-10-16T05:43:20;16.80;;;14.90;;
11090;SDS011;5599;52.210;21.046;2022-10-16T05:45:54;16.83;;;14.33;;
11090;SDS011;5599;52.210;21.046;2022-10-16T05:48:24;15.63;;;14.03;;
11090;SDS011;5599;52.210;21.046;2022-10-16T05:50:57;14.40;;;12.93;;
11090;SDS011;5599;52.210;21.046;2022-10-16T05:53:28;15.70;;;14.00;;
11090;SDS011;5599;52.210;21.046;2022-10-16T05:55:59;14.03;;;12.63;;
11090;SDS011;5599;52.210;21.046;2022-10-16T05:58:39;16.63;;;14.50;;
11090;SDS011;5599;52.210;21.046;2022-10-16T06:01:09;15.13;;;13.20;;
11090;SDS011;5599;52.210;21.046;2022-10-16T06:03:41;15.47;;;13.90;;
11090;SDS011;5599;52.210;21.046;2022-10-16T06:06:10;16.20;;;14.30;;
11090;SDS011;5599;52.210;21.046;2022-10-16T06:08:41;14.77;;;13.20;;
11090;SDS011;5599;52.210;21.046;2022-10-16T06:11:13;14.68;;;13.15;;
11090;SDS011;5599;52.210;21.046;2022-10-16T06:13:44;15.02;;;12.85;;
11090;SDS011;5599;52.210;21.046;2022-10-16T06:16:17;13.68;;;12.27;;
11090;SDS011;5599;52.210;21.046;2022-10-16T06:18:46;13.75;;;11.65;;
11090;SDS011;5599;52.210;21.046;2022-10-16T06:21:16;14.43;;;12.43;;
11090;SDS011;5599;52.210;21.046;2022-10-16T06:23:47;14.52;;;13.07;;
11090;SDS011;5599;52.210;21.046;2022-10-16T06:26:17;16.67;;;15.07;;
11090;SDS011;5599;52.210;21.046;2022-10-16T06:28:48;12.90;;;11.60;;
11090;SDS011;5599;52.210;21.046;2022-10-16T06:31:18;15.90;;;12.27;;
11090;SDS011;5599;52.210;21.046;2022-10-16T06:33:50;13.65;;;12.07;;
11090;SDS011;5599;52.210;21.046;2022-10-16T06:36:19;12.95;;;11.02;;
11090;SDS011;5599;52.210;21.046;2022-10-16T06:38:49;12.05;;;11.02;;
11090;SDS011;5599;52.210;21.046;2022-10-16T06:41:18;13.80;;;11.68;;
11090;SDS011;5599;52.210;21.046;2022-10-16T06:43:50;13.45;;;12.15;;
11090;SDS011;5599;52.210;21.046;2022-10-16T06:46:20;14.35;;;11.52;;
11090;SDS011;5599;52.210;21.046;2022-10-16T06:48:51;13.55;;;11.13;;
11090;SDS011;5599;52.210;21.046;2022-10-16T06:51:21;12.00;;;10.93;;
11090;SDS011;5599;52.210;21.046;2022-10-16T06:53:51;12.05;;;10.77;;
11090;SDS011;5599;52.210;21.046;2022-10-16T06:56:30;13.07;;;11.80;;
11090;SDS011;5599;52.210;21.046;2022-10-16T06:59:02;12.60;;;11.35;;
11090;SDS011;5599;52.210;21.046;2022-10-16T07:01:32;12.05;;;10.95;;
11090;SDS011;5599;52.210;21.046;2022-10-16T07:04:01;14.88;;;11.68;;
11090;SDS011;5599;52.210;21.046;2022-10-16T07:06:31;11.75;;;10.40;;
11090;SDS011;5599;52.210;21.046;2022-10-16T07:09:05;17.30;;;11.75;;
11090;SDS011;5599;52.210;21.046;2022-10-16T07:11:38;13.07;;;11.77;;
11090;SDS011;5599;52.210;21.046;2022-10-16T07:14:14;12.80;;;11.50;;
11090;SDS011;5599;52.210;21.046;2022-10-16T07:16:45;13.85;;;12.25;;
11090;SDS011;5599;52.210;21.046;2022-10-16T07:19:14;14.25;;;11.73;;
11090;SDS011;5599;52.210;21.046;2022-10-16T07:21:44;12.90;;;11.63;;
11090;SDS011;5599;52.210;21.046;2022-10-16T07:24:14;12.60;;;11.40;;
11090;SDS011;5599;52.210;21.046;2022-10-16T07:26:44;13.25;;;11.77;;
11090;SDS011;5599;52.210;21.046;2022-10-16T07:29:16;13.57;;;12.27;;
11090;SDS011;5599;52.210;21.046;2022-10-16T07:31:47;13.30;;;12.00;;
11090;SDS011;5599;52.210;21.046;2022-10-16T07:34:17;13.82;;;12.10;;
11090;SDS011;5599;52.210;21.046;2022-10-16T07:36:48;14.48;;;12.98;;
11090;SDS011;5599;52.210;21.046;2022-10-16T07:39:18;14.80;;;12.75;;
11090;SDS011;5599;52.210;21.046;2022-10-16T07:41:47;14.93;;;11.93;;
11090;SDS011;5599;52.210;21.046;2022-10-16T07:44:18;15.73;;;14.18;;
11090;SDS011;5599;52.210;21.046;2022-10-16T07:46:47;12.93;;;11.57;;
11090;SDS011;5599;52.210;21.046;2022-10-16T07:49:16;13.27;;;11.65;;
11090;SDS011;5599;52.210;21.046;2022-10-16T07:51:45;13.27;;;11.98;;
11090;SDS011;5599;52.210;21.046;2022-10-16T07:54:14;12.90;;;10.73;;
11090;SDS011;5599;52.210;21.046;2022-10-16T07:56:43;12.60;;;11.32;;
11090;SDS011;5599;52.210;21.046;2022-10-16T07:59:13;12.15;;;10.82;;
11090;SDS011;5599;52.210;21.046;2022-10-16T08:01:43;12.18;;;10.98;;
11090;SDS011;5599;52.210;21.046;2022-10-16T08:04:13;12.38;;;11.00;;
11090;SDS011;5599;52.210;21.046;2022-10-16T08:06:42;12.48;;;11.27;;
11090;SDS011;5599;52.210;21.046;2022-10-16T08:09:11;11.90;;;10.70;;
11090;SDS011;5599;52.210;21.046;2022-10-16T08:11:40;13.07;;;10.85;;
11090;SDS011;5599;52.210;21.046;2022-10-16T08:14:09;12.55;;;11.25;;
11090;SDS011;5599;52.210;21.046;2022-10-16T08:16:38;11.73;;;10.60;;
11090;SDS011;5599;52.210;21.046;2022-10-16T08:19:09;12.18;;;10.90;;
11090;SDS011;5599;52.210;21.046;2022-10-16T08:21:42;13.48;;;10.30;;
11090;SDS011;5599;52.210;21.046;2022-10-16T08:24:17;11.38;;;10.23;;
11090;SDS011;5599;52.210;21.046;2022-10-16T08:26:46;11.73;;;10.27;;
11090;SDS011;5599;52.210;21.046;2022-10-16T08:29:15;12.13;;;10.90;;
11090;SDS011;5599;52.210;21.046;2022-10-16T08:31:44;11.02;;;10.02;;
11090;SDS011;5599;52.210;21.046;2022-10-16T08:34:16;11.85;;;10.68;;
11090;SDS011;5599;52.210;21.046;2022-10-16T08:36:46;11.70;;;10.60;;
11090;SDS011;5599;52.210;21.046;2022-10-16T08:39:15;10.93;;;9.80;;
11090;SDS011;5599;52.210;21.046;2022-10-16T08:44:54;11.32;;;9.70;;
11090;SDS011;5599;52.210;21.046;2022-10-16T08:47:35;11.45;;;10.35;;
11090;SDS011;5599;52.210;21.046;2022-10-16T08:50:17;11.48;;;9.93;;
11090;SDS011;5599;52.210;21.046;2022-10-16T08:52:51;10.85;;;9.70;;
11090;SDS011;5599;52.210;21.046;2022-10-16T08:55:27;10.95;;;9.90;;
11090;SDS011;5599;52.210;21.046;2022-10-16T08:58:00;11.32;;;10.20;;
11090;SDS011;5599;52.210;21.046;2022-10-16T09:00:29;11.27;;;10.15;;
11090;SDS011;5599;52.210;21.046;2022-10-16T09:03:02;10.95;;;9.95;;
11090;SDS011;5599;52.210;21.046;2022-10-16T09:05:41;11.73;;;10.10;;
11090;SDS011;5599;52.210;21.046;2022-10-16T09:08:22;10.85;;;9.90;;
11090;SDS011;5599;52.210;21.046;2022-10-16T09:11:00;12.02;;;10.93;;
11090;SDS011;5599;52.210;21.046;2022-10-16T09:13:39;11.15;;;10.00;;
11090;SDS011;5599;52.210;21.046;2022-10-16T09:16:19;11.13;;;9.80;;
11090;SDS011;5599;52.210;21.046;2022-10-16T09:18:54;11.57;;;10.48;;
11090;SDS011;5599;52.210;21.046;2022-10-16T09:21:31;11.18;;;10.07;;
11090;SDS011;5599;52.210;21.046;2022-10-16T09:24:08;10.90;;;9.85;;
11090;SDS011;5599;52.210;21.046;2022-10-16T09:26:40;10.77;;;9.73;;
11090;SDS011;5599;52.210;21.046;2022-10-16T09:29:10;10.85;;;9.60;;
11090;SDS011;5599;52.210;21.046;2022-10-16T09:31:41;11.27;;;9.82;;
11090;SDS011;5599;52.210;21.046;2022-10-16T09:34:13;11.48;;;10.40;;
11090;SDS011;5599;52.210;21.046;2022-10-16T09:36:53;10.88;;;9.77;;
11090;SDS011;5599;52.210;21.046;2022-10-16T09:39:24;11.13;;;9.98;;
11090;SDS011;5599;52.210;21.046;2022-10-16T09:41:53;13.50;;;9.60;;
11090;SDS011;5599;52.210;21.046;2022-10-16T09:44:24;11.35;;;10.20;;
11090;SDS011;5599;52.210;21.046;2022-10-16T09:47:01;14.02;;;9.77;;
11090;SDS011;5599;52.210;21.046;2022-10-16T09:49:31;10.15;;;9.05;;
11090;SDS011;5599;52.210;21.046;2022-10-16T09:52:05;11.13;;;10.02;;
11090;SDS011;5599;52.210;21.046;2022-10-16T09:54:48;9.98;;;9.07;;
11090;SDS011;5599;52.210;21.046;2022-10-16T09:57:18;11.50;;;10.40;;
11090;SDS011;5599;52.210;21.046;2022-10-16T09:59:48;11.05;;;9.55;;
11090;SDS011;5599;52.210;21.046;2022-10-16T10:02:19;12.32;;;9.55;;
11090;SDS011;5599;52.210;21.046;2022-10-16T10:04:56;11.77;;;10.07;;
11090;SDS011;5599;52.210;21.046;2022-10-16T10:07:28;12.52;;;9.45;;
11090;SDS011;5599;52.210;21.046;2022-10-16T10:10:02;11.30;;;9.30;;
11090;SDS011;5599;52.210;21.046;2022-10-16T10:12:33;10.68;;;9.57;;
11090;SDS011;5599;52.210;21.046;2022-10-16T10:15:05;10.20;;;9.20;;
11090;SDS011;5599;52.210;21.046;2022-10-16T10:17:46;10.77;;;9.77;;
11090;SDS011;5599;52.210;21.046;2022-10-16T10:20:24;10.15;;;9.15;;
11090;SDS011;5599;52.210;21.046;2022-10-16T10:22:57;10.73;;;9.40;;
11090;SDS011;5599;52.210;21.046;2022-10-16T10:25:39;9.88;;;8.90;;
11090;SDS011;5599;52.210;21.046;2022-10-16T10:28:22;9.98;;;8.98;;
11090;SDS011;5599;52.210;21.046;2022-10-16T10:31:00;9.73;;;8.88;;
11090;SDS011;5599;52.210;21.046;2022-10-16T10:33:37;9.57;;;8.68;;
11090;SDS011;5599;52.210;21.046;2022-10-16T10:36:19;11.40;;;8.82;;
11090;SDS011;5599;52.210;21.046;2022-10-16T10:38:58;8.93;;;8.07;;
11090;SDS011;5599;52.210;21.046;2022-10-16T10:41:44;9.60;;;8.50;;
11090;SDS011;5599;52.210;21.046;2022-10-16T10:44:36;10.77;;;9.68;;
11090;SDS011;5599;52.210;21.046;2022-10-16T10:47:17;10.48;;;8.68;;
11090;SDS011;5599;52.210;21.046;2022-10-16T10:49:54;9.50;;;8.60;;
11090;SDS011;5599;52.210;21.046;2022-10-16T10:52:34;10.45;;;9.32;;
11090;SDS011;5599;52.210;21.046;2022-10-16T10:55:18;11.95;;;9.25;;
11090;SDS011;5599;52.210;21.046;2022-10-16T10:57:57;11.68;;;9.10;;
11090;SDS011;5599;52.210;21.046;2022-10-16T11:00:42;9.15;;;8.20;;
11090;SDS011;5599;52.210;21.046;2022-10-16T11:03:24;9.88;;;8.88;;
11090;SDS011;5599;52.210;21.046;2022-10-16T11:06:04;9.38;;;8.48;;
11090;SDS011;5599;52.210;21.046;2022-10-16T11:08:37;12.80;;;8.50;;
11090;SDS011;5599;52.210;21.046;2022-10-16T11:11:11;9.90;;;8.95;;
11090;SDS011;5599;52.210;21.046;2022-10-16T11:13:46;9.38;;;8.48;;
11090;SDS011;5599;52.210;21.046;2022-10-16T11:16:26;10.82;;;8.88;;
11090;SDS011;5599;52.210;21.046;2022-10-16T11:18:58;9.75;;;8.90;;
11090;SDS011;5599;52.210;21.046;2022-10-16T11:21:34;12.90;;;9.75;;
11090;SDS011;5599;52.210;21.046;2022-10-16T11:24:11;9.98;;;9.07;;
11090;SDS011;5599;52.210;21.046;2022-10-16T11:26:49;9.90;;;8.85;;
11090;SDS011;5599;52.210;21.046;2022-10-16T11:29:21;10.48;;;8.98;;
11090;SDS011;5599;52.210;21.046;2022-10-16T11:31:58;9.60;;;8.70;;
11090;SDS011;5599;52.210;21.046;2022-10-16T11:34:31;12.35;;;8.30;;
11090;SDS011;5599;52.210;21.046;2022-10-16T11:37:09;9.55;;;8.55;;
11090;SDS011;5599;52.210;21.046;2022-10-16T11:39:42;9.85;;;8.85;;
11090;SDS011;5599;52.210;21.046;2022-10-16T11:42:16;9.18;;;8.32;;
11090;SDS011;5599;52.210;21.046;2022-10-16T11:44:51;10.18;;;9.18;;
11090;SDS011;5599;52.210;21.046;2022-10-16T11:47:30;10.07;;;8.55;;
11090;SDS011;5599;52.210;21.046;2022-10-16T11:50:23;9.63;;;8.30;;
11090;SDS011;5599;52.210;21.046;2022-10-16T11:52:58;10.75;;;8.65;;
11090;SDS011;5599;52.210;21.046;2022-10-16T11:55:34;10.30;;;7.80;;
11090;SDS011;5599;52.210;21.046;2022-10-16T11:58:14;10.15;;;9.25;;
11090;SDS011;5599;52.210;21.046;2022-10-16T12:00:53;9.23;;;8.13;;
11090;SDS011;5599;52.210;21.046;2022-10-16T12:03:30;9.25;;;8.27;;
11090;SDS011;5599;52.210;21.046;2022-10-16T12:06:09;9.05;;;8.15;;
11090;SDS011;5599;52.210;21.046;2022-10-16T12:08:47;9.75;;;8.68;;
11090;SDS011;5599;52.210;21.046;2022-10-16T12:11:22;9.30;;;8.43;;
11090;SDS011;5599;52.210;21.046;2022-10-16T12:14:19;9.20;;;8.30;;
11090;SDS011;5599;52.210;21.046;2022-10-16T12:17:22;9.75;;;8.75;;
11090;SDS011;5599;52.210;21.046;2022-10-16T12:19:57;9.52;;;8.52;;
11090;SDS011;5599;52.210;21.046;2022-10-16T12:22:28;10.65;;;9.57;;
11090;SDS011;5599;52.210;21.046;2022-10-16T12:25:05;9.93;;;8.88;;
11090;SDS011;5599;52.210;21.046;2022-10-16T12:27:53;8.77;;;7.85;;
11090;SDS011;5599;52.210;21.046;2022-10-16T12:30:25;10.15;;;8.50;;
11090;SDS011;5599;52.210;21.046;2022-10-16T12:33:02;8.75;;;7.93;;
11090;SDS011;5599;52.210;21.046;2022-10-16T12:35:33;9.38;;;8.48;;
11090;SDS011;5599;52.210;21.046;2022-10-16T12:38:05;9.07;;;8.25;;
11090;SDS011;5599;52.210;21.046;2022-10-16T12:40:36;10.00;;;8.73;;
11090;SDS011;5599;52.210;21.046;2022-10-16T12:43:25;9.25;;;8.32;;
11090;SDS011;5599;52.210;21.046;2022-10-16T12:46:02;9.73;;;8.82;;
11090;SDS011;5599;52.210;21.046;2022-10-16T12:48:33;9.68;;;8.77;;
11090;SDS011;5599;52.210;21.046;2022-10-16T12:51:24;8.82;;;8.00;;
11090;SDS011;5599;52.210;21.046;2022-10-16T12:54:03;11.32;;;9.38;;
11090;SDS011;5599;52.210;21.046;2022-10-16T12:56:36;10.45;;;9.15;;
11090;SDS011;5599;52.210;21.046;2022-10-16T12:59:17;13.05;;;11.93;;
11090;SDS011;5599;52.210;21.046;2022-10-16T13:02:00;12.80;;;11.70;;
11090;SDS011;5599;52.210;21.046;2022-10-16T13:04:55;9.52;;;8.63;;
11090;SDS011;5599;52.210;21.046;2022-10-16T13:07:40;9.65;;;8.60;;
11090;SDS011;5599;52.210;21.046;2022-10-16T13:10:20;10.20;;;8.85;;
11090;SDS011;5599;52.210;21.046;2022-10-16T13:13:00;9.77;;;8.15;;
11090;SDS011;5599;52.210;21.046;2022-10-16T13:15:48;9.60;;;8.60;;
11090;SDS011;5599;52.210;21.046;2022-10-16T13:18:29;16.92;;;15.18;;
11090;SDS011;5599;52.210;21.046;2022-10-16T13:21:11;9.18;;;7.93;;
11090;SDS011;5599;52.210;21.046;2022-10-16T13:23:51;10.45;;;8.60;;
11090;SDS011;5599;52.210;21.046;2022-10-16T13:26:31;10.93;;;7.80;;
11090;SDS011;5599;52.210;21.046;2022-10-16T13:29:09;9.30;;;8.30;;
11090;SDS011;5599;52.210;21.046;2022-10-16T13:31:38;9.07;;;8.18;;
11090;SDS011;5599;52.210;21.046;2022-10-16T13:34:12;9.45;;;8.55;;
11090;SDS011;5599;52.210;21.046;2022-10-16T13:36:44;9.32;;;7.97;;
11090;SDS011;5599;52.210;21.046;2022-10-16T13:39:15;8.70;;;7.90;;
11090;SDS011;5599;52.210;21.046;2022-10-16T13:41:58;8.98;;;7.50;;
11090;SDS011;5599;52.210;21.046;2022-10-16T13:44:36;9.15;;;7.68;;
11090;SDS011;5599;52.210;21.046;2022-10-16T13:47:15;10.40;;;8.68;;
11090;SDS011;5599;52.210;21.046;2022-10-16T13:49:47;9.27;;;8.38;;
11090;SDS011;5599;52.210;21.046;2022-10-16T13:52:28;8.88;;;8.07;;
11090;SDS011;5599;52.210;21.046;2022-10-16T13:54:57;9.25;;;7.82;;
11090;SDS011;5599;52.210;21.046;2022-10-16T13:57:28;8.77;;;7.97;;
11090;SDS011;5599;52.210;21.046;2022-10-16T13:59:57;10.52;;;8.50;;
11090;SDS011;5599;52.210;21.046;2022-10-16T14:02:28;12.13;;;8.05;;
11090;SDS011;5599;52.210;21.046;2022-10-16T14:05:04;13.23;;;10.68;;
11090;SDS011;5599;52.210;21.046;2022-10-16T14:07:38;10.65;;;8.70;;
11090;SDS011;5599;52.210;21.046;2022-10-16T14:10:19;9.43;;;8.23;;
11090;SDS011;5599;52.210;21.046;2022-10-16T14:12:54;13.55;;;8.80;;
11090;SDS011;5599;52.210;21.046;2022-10-16T14:15:25;8.52;;;7.60;;
11090;SDS011;5599;52.210;21.046;2022-10-16T14:17:54;8.90;;;7.95;;
11090;SDS011;5599;52.210;21.046;2022-10-16T14:20:26;10.63;;;8.13;;
11090;SDS011;5599;52.210;21.046;2022-10-16T14:23:00;8.68;;;7.80;;
11090;SDS011;5599;52.210;21.046;2022-10-16T14:25:32;9.20;;;8.40;;
11090;SDS011;5599;52.210;21.046;2022-10-16T14:28:02;10.07;;;7.85;;
11090;SDS011;5599;52.210;21.046;2022-10-16T14:30:34;10.63;;;8.13;;
11090;SDS011;5599;52.210;21.046;2022-10-16T14:33:05;9.68;;;7.72;;
11090;SDS011;5599;52.210;21.046;2022-10-16T14:35:58;8.93;;;8.13;;
11090;SDS011;5599;52.210;21.046;2022-10-16T14:38:33;8.60;;;7.65;;
11090;SDS011;5599;52.210;21.046;2022-10-16T14:41:03;8.63;;;7.93;;
11090;SDS011;5599;52.210;21.046;2022-10-16T14:43:33;10.13;;;8.73;;
11090;SDS011;5599;52.210;21.046;2022-10-16T14:46:06;11.55;;;10.35;;
11090;SDS011;5599;52.210;21.046;2022-10-16T14:48:40;11.55;;;10.43;;
11090;SDS011;5599;52.210;21.046;2022-10-16T14:51:13;10.85;;;9.40;;
11090;SDS011;5599;52.210;21.046;2022-10-16T14:53:43;10.02;;;9.02;;
11090;SDS011;5599;52.210;21.046;2022-10-16T14:56:14;10.10;;;8.93;;
11090;SDS011;5599;52.210;21.046;2022-10-16T14:58:46;10.07;;;9.05;;
11090;SDS011;5599;52.210;21.046;2022-10-16T15:01:16;8.77;;;7.90;;
11090;SDS011;5599;52.210;21.046;2022-10-16T15:03:46;11.55;;;8.73;;
11090;SDS011;5599;52.210;21.046;2022-10-16T15:06:17;10.13;;;9.13;;
11090;SDS011;5599;52.210;21.046;2022-10-16T15:08:47;10.00;;;8.85;;